Time;durP1;ratioP1;P1;durP2;ratioP2;P2;SDS_P1;SDS_P2;PMS_P1;PMS_P2;Temp;Humidity;BMP_temperature;BMP_pressure;BME280_temperature;BME280_humidity;BME280_pressure;Samples;Min_cycle;Max_cycle;Signal;HPM_P1;HPM_P2
2022/07/18 00:01:46;;;;;;;3.95;2.28;;;;;;;;;;4899508;29;20032;-66
2022/07/18 00:04:11;;;;;;;6.22;2.20;;;;;;;;;;4895920;29;20168;-65
2022/07/18 00:06:37;;;;;;;5.55;2.05;;;;;;;;;;4914681;29;20059;-66
2022/07/18 00:09:03;;;;;;;6.40;2.30;;;;;;;;;;4894538;29;20032;-66
2022/07/18 00:11:29;;;;;;;5.15;2.33;;;;;;;;;;4913239;29;20052;-69
2022/07/18 00:13:55;;;;;;;4.43;2.13;;;;;;;;;;4895264;29;20032;-66
2022/07/18 00:16:22;;;;;;;5.03;2.10;;;;;;;;;;4899574;29;20047;-66
2022/07/18 00:18:49;;;;;;;5.20;2.13;;;;;;;;;;4879506;29;20048;-69
2022/07/18 00:21:15;;;;;;;5.57;2.13;;;;;;;;;;4897098;29;20035;-66
2022/07/18 00:23:41;;;;;;;5.07;2.20;;;;;;;;;;4894494;29;20531;-66
2022/07/18 00:26:06;;;;;;;6.20;2.33;;;;;;;;;;4895802;29;20048;-67
2022/07/18 00:28:32;;;;;;;4.38;2.25;;;;;;;;;;4880778;29;20039;-66
2022/07/18 00:30:58;;;;;;;4.25;2.00;;;;;;;;;;4890869;29;20033;-68
2022/07/18 00:33:23;;;;;;;4.20;2.30;;;;;;;;;;4874991;29;20112;-67
2022/07/18 00:35:49;;;;;;;5.35;2.17;;;;;;;;;;4895306;29;20072;-69
2022/07/18 00:38:15;;;;;;;5.72;2.30;;;;;;;;;;4880697;29;20037;-68
2022/07/18 00:40:41;;;;;;;6.07;2.42;;;;;;;;;;4894102;29;20036;-66
2022/07/18 00:43:06;;;;;;;5.15;2.20;;;;;;;;;;4894077;29;20033;-66
2022/07/18 00:45:31;;;;;;;4.57;2.40;;;;;;;;;;4893302;29;20055;-66
2022/07/18 00:47:57;;;;;;;6.70;2.40;;;;;;;;;;4893932;29;20048;-66
2022/07/18 00:50:24;;;;;;;7.25;2.90;;;;;;;;;;4895852;29;20375;-66
2022/07/18 00:52:49;;;;;;;10.05;2.28;;;;;;;;;;4873803;29;20057;-66
2022/07/18 00:55:15;;;;;;;4.32;2.30;;;;;;;;;;4867530;29;20033;-67
2022/07/18 00:57:42;;;;;;;6.72;2.63;;;;;;;;;;4869877;29;20033;-66
2022/07/18 01:02:55;;;;;;;6.22;2.25;;;;;;;;;;4875680;29;20399;-67
2022/07/18 01:05:21;;;;;;;7.28;2.38;;;;;;;;;;4878712;29;20038;-67
2022/07/18 01:07:46;;;;;;;5.30;2.40;;;;;;;;;;4873331;29;20140;-66
2022/07/18 01:10:12;;;;;;;6.88;2.20;;;;;;;;;;4876218;29;20146;-66
2022/07/18 01:12:37;;;;;;;7.53;2.30;;;;;;;;;;4864391;29;20036;-66
2022/07/18 01:15:04;;;;;;;6.68;2.22;;;;;;;;;;4892026;29;20025;-67
2022/07/18 01:17:30;;;;;;;6.82;2.70;;;;;;;;;;4875593;29;20066;-68
2022/07/18 01:19:55;;;;;;;5.00;2.40;;;;;;;;;;4877137;29;20064;-69
2022/07/18 01:22:21;;;;;;;5.25;2.47;;;;;;;;;;4880241;29;20046;-67
2022/07/18 01:24:48;;;;;;;5.30;2.40;;;;;;;;;;4876168;29;20037;-66
2022/07/18 01:27:16;;;;;;;5.35;2.22;;;;;;;;;;4873086;29;20274;-67
2022/07/18 01:29:42;;;;;;;4.97;1.98;;;;;;;;;;4877004;29;20041;-68
2022/07/18 01:32:09;;;;;;;7.80;2.10;;;;;;;;;;4854756;29;20043;-69
2022/07/18 01:34:35;;;;;;;3.83;1.90;;;;;;;;;;4855422;29;20033;-68
2022/07/18 01:37:00;;;;;;;6.60;2.28;;;;;;;;;;4875203;29;20041;-66
2022/07/18 01:39:26;;;;;;;4.05;1.88;;;;;;;;;;4877300;29;20037;-65
2022/07/18 01:42:00;;;;;;;4.85;2.22;;;;;;;;;;4861458;29;20526;-66
2022/07/18 01:44:27;;;;;;;5.95;2.30;;;;;;;;;;4875589;29;20048;-66
2022/07/18 01:46:53;;;;;;;3.88;1.95;;;;;;;;;;4884610;29;20466;-68
2022/07/18 01:49:20;;;;;;;6.53;2.38;;;;;;;;;;4875447;29;20044;-66
2022/07/18 01:51:52;;;;;;;7.82;2.15;;;;;;;;;;4873400;29;20060;-66
2022/07/18 01:54:22;;;;;;;6.43;2.28;;;;;;;;;;4893523;29;20465;-65
2022/07/18 01:56:48;;;;;;;6.50;2.28;;;;;;;;;;4891832;29;20081;-68
2022/07/18 01:59:13;;;;;;;8.57;2.30;;;;;;;;;;4877093;29;20518;-66
2022/07/18 02:01:39;;;;;;;6.35;2.17;;;;;;;;;;4891014;29;20072;-66
2022/07/18 02:04:05;;;;;;;5.88;2.10;;;;;;;;;;4893862;29;20042;-68
2022/07/18 02:06:31;;;;;;;6.30;2.28;;;;;;;;;;4904363;29;20068;-66
2022/07/18 02:08:57;;;;;;;6.85;2.30;;;;;;;;;;4881906;29;20100;-69
2022/07/18 02:11:22;;;;;;;6.70;2.35;;;;;;;;;;4897418;29;20033;-66
2022/07/18 02:13:48;;;;;;;5.35;2.42;;;;;;;;;;4880696;29;20140;-68
2022/07/18 02:16:14;;;;;;;3.85;2.13;;;;;;;;;;4900517;29;20552;-66
2022/07/18 02:18:39;;;;;;;6.18;2.53;;;;;;;;;;4899235;29;20043;-66
2022/07/18 02:21:05;;;;;;;6.13;2.30;;;;;;;;;;4892315;29;20040;-66
2022/07/18 02:23:30;;;;;;;5.75;2.33;;;;;;;;;;4898084;29;20040;-66
2022/07/18 02:25:56;;;;;;;4.65;2.30;;;;;;;;;;4897982;29;20098;-67
2022/07/18 02:28:22;;;;;;;6.60;2.30;;;;;;;;;;4897423;29;20037;-66
2022/07/18 02:30:50;;;;;;;6.50;2.30;;;;;;;;;;4895599;29;20092;-68
2022/07/18 02:33:16;;;;;;;5.03;2.50;;;;;;;;;;4880429;29;20028;-68
2022/07/18 02:35:42;;;;;;;4.45;2.35;;;;;;;;;;4897719;29;20047;-65
2022/07/18 02:38:08;;;;;;;4.32;2.40;;;;;;;;;;4895019;29;20047;-67
2022/07/18 02:40:34;;;;;;;3.85;2.20;;;;;;;;;;4914536;29;20063;-66
2022/07/18 02:43:00;;;;;;;7.85;2.55;;;;;;;;;;4886480;29;20134;-69
2022/07/18 02:45:26;;;;;;;6.47;2.47;;;;;;;;;;4879645;29;20493;-66
2022/07/18 02:47:52;;;;;;;6.40;2.90;;;;;;;;;;4897160;29;20112;-66
2022/07/18 02:50:18;;;;;;;7.63;2.55;;;;;;;;;;4887474;29;20469;-65
2022/07/18 02:52:43;;;;;;;5.72;2.60;;;;;;;;;;4877188;29;20063;-66
2022/07/18 02:55:10;;;;;;;7.78;2.80;;;;;;;;;;4894768;29;20044;-66
2022/07/18 02:57:36;;;;;;;8.63;2.70;;;;;;;;;;4878631;29;20035;-66
2022/07/18 03:00:08;;;;;;;5.72;2.80;;;;;;;;;;4880513;29;20033;-68
2022/07/18 03:02:34;;;;;;;8.38;3.08;;;;;;;;;;4885126;29;20493;-67
2022/07/18 03:05:00;;;;;;;7.93;2.97;;;;;;;;;;4873274;29;20530;-70
2022/07/18 03:07:25;;;;;;;7.15;3.00;;;;;;;;;;4871984;29;20064;-67
2022/07/18 03:09:51;;;;;;;7.53;3.20;;;;;;;;;;4862499;29;20041;-66
2022/07/18 03:12:17;;;;;;;9.05;3.30;;;;;;;;;;4868527;29;20043;-66
2022/07/18 03:14:42;;;;;;;6.63;3.30;;;;;;;;;;4880088;29;20033;-66
2022/07/18 03:17:08;;;;;;;9.93;3.50;;;;;;;;;;4864897;29;20468;-67
2022/07/18 03:19:33;;;;;;;9.60;3.75;;;;;;;;;;4879691;29;20089;-67
2022/07/18 03:21:59;;;;;;;9.57;3.70;;;;;;;;;;4860642;29;20037;-69
2022/07/18 03:24:25;;;;;;;6.47;3.40;;;;;;;;;;4870631;29;20127;-66
2022/07/18 03:26:51;;;;;;;5.88;3.45;;;;;;;;;;4880215;29;20123;-68
2022/07/18 03:29:17;;;;;;;6.60;3.47;;;;;;;;;;4885306;29;20052;-67
2022/07/18 03:31:42;;;;;;;7.97;3.30;;;;;;;;;;4884962;29;20070;-66
2022/07/18 03:34:08;;;;;;;5.82;3.13;;;;;;;;;;4866440;29;20040;-66
2022/07/18 03:36:33;;;;;;;6.57;3.20;;;;;;;;;;4859763;29;20041;-67
2022/07/18 03:38:59;;;;;;;7.47;3.25;;;;;;;;;;4881036;29;20100;-66
2022/07/18 03:41:25;;;;;;;9.82;3.20;;;;;;;;;;4875672;29;20451;-68
2022/07/18 03:43:50;;;;;;;8.25;3.47;;;;;;;;;;4867104;29;20032;-66
2022/07/18 03:46:16;;;;;;;7.00;3.22;;;;;;;;;;4874594;29;20112;-68
2022/07/18 03:48:41;;;;;;;5.88;3.00;;;;;;;;;;4863888;29;20478;-66
2022/07/18 03:51:07;;;;;;;7.35;2.70;;;;;;;;;;4864688;29;20045;-65
2022/07/18 03:53:32;;;;;;;7.50;3.30;;;;;;;;;;4872047;29;20128;-67
2022/07/18 03:55:58;;;;;;;7.57;2.88;;;;;;;;;;4880484;29;20035;-67
2022/07/18 03:58:24;;;;;;;9.88;2.83;;;;;;;;;;4895606;29;20037;-66
2022/07/18 04:00:50;;;;;;;5.70;2.78;;;;;;;;;;4879004;29;20029;-67
2022/07/18 04:03:16;;;;;;;5.43;2.47;;;;;;;;;;4894140;29;20059;-67
2022/07/18 04:05:41;;;;;;;5.00;2.40;;;;;;;;;;4895986;29;20039;-66
2022/07/18 04:08:07;;;;;;;7.15;2.75;;;;;;;;;;4905760;29;20044;-67
2022/07/18 04:10:33;;;;;;;7.15;2.60;;;;;;;;;;4894319;29;20119;-68
2022/07/18 04:12:58;;;;;;;5.35;2.40;;;;;;;;;;4895203;29;20040;-68
2022/07/18 04:15:25;;;;;;;6.68;2.47;;;;;;;;;;4894387;29;20047;-69
2022/07/18 04:17:52;;;;;;;4.90;2.30;;;;;;;;;;4879078;29;20033;-66
2022/07/18 04:20:19;;;;;;;5.05;2.30;;;;;;;;;;4890576;29;20036;-68
2022/07/18 04:22:51;;;;;;;6.38;2.50;;;;;;;;;;4892634;29;20028;-67
2022/07/18 04:25:18;;;;;;;9.02;2.60;;;;;;;;;;4895079;29;20033;-67
2022/07/18 04:27:44;;;;;;;4.68;2.08;;;;;;;;;;4895650;29;20041;-67
2022/07/18 04:30:10;;;;;;;5.72;2.97;;;;;;;;;;4891481;29;20036;-68
2022/07/18 04:32:36;;;;;;;7.85;2.38;;;;;;;;;;4879690;29;20440;-66
2022/07/18 04:35:03;;;;;;;8.27;2.70;;;;;;;;;;4910354;29;20040;-66
2022/07/18 04:37:32;;;;;;;5.07;2.38;;;;;;;;;;4897941;29;20569;-66
2022/07/18 04:39:58;;;;;;;4.43;2.20;;;;;;;;;;4896991;29;20485;-68
2022/07/18 04:42:24;;;;;;;6.60;2.40;;;;;;;;;;4910009;29;20219;-67
2022/07/18 04:44:50;;;;;;;5.10;2.30;;;;;;;;;;4898630;29;20029;-67
2022/07/18 04:47:15;;;;;;;6.68;2.45;;;;;;;;;;4881143;29;20037;-67
2022/07/18 04:49:41;;;;;;;4.07;2.30;;;;;;;;;;4883714;29;20093;-66
2022/07/18 04:52:07;;;;;;;5.43;2.25;;;;;;;;;;4880686;29;20071;-69
2022/07/18 04:54:32;;;;;;;5.95;2.35;;;;;;;;;;4900189;29;20040;-68
2022/07/18 04:56:58;;;;;;;5.20;2.70;;;;;;;;;;4914013;29;20036;-68
2022/07/18 04:59:24;;;;;;;7.20;2.40;;;;;;;;;;4896705;29;20040;-67
2022/07/18 05:01:49;;;;;;;4.35;2.15;;;;;;;;;;4906199;29;20032;-66
2022/07/18 05:04:15;;;;;;;9.85;2.55;;;;;;;;;;4901658;29;20084;-67
2022/07/18 05:06:40;;;;;;;6.68;2.30;;;;;;;;;;4878860;29;20119;-66
2022/07/18 05:09:07;;;;;;;6.43;2.58;;;;;;;;;;4904714;29;20067;-67
2022/07/18 05:11:33;;;;;;;5.82;2.35;;;;;;;;;;4888162;29;20513;-68
2022/07/18 05:13:58;;;;;;;5.05;2.30;;;;;;;;;;4890085;29;20047;-69
2022/07/18 05:16:24;;;;;;;6.95;2.50;;;;;;;;;;4897471;29;20123;-68
2022/07/18 05:18:49;;;;;;;9.30;2.97;;;;;;;;;;4914902;29;20039;-67
2022/07/18 05:21:15;;;;;;;6.93;2.53;;;;;;;;;;4886238;29;20028;-67
2022/07/18 05:23:40;;;;;;;6.82;2.60;;;;;;;;;;4881613;29;20454;-68
2022/07/18 05:26:06;;;;;;;7.35;2.70;;;;;;;;;;4896659;29;20541;-69
2022/07/18 05:28:31;;;;;;;11.40;2.95;;;;;;;;;;4896322;29;20060;-67
2022/07/18 05:30:57;;;;;;;10.02;3.25;;;;;;;;;;4897996;29;20415;-69
2022/07/18 05:33:22;;;;;;;9.25;3.00;;;;;;;;;;4912135;29;20115;-67
2022/07/18 05:35:48;;;;;;;10.10;3.28;;;;;;;;;;4912024;29;20088;-69
2022/07/18 05:38:13;;;;;;;10.27;3.28;;;;;;;;;;4895738;29;20115;-68
2022/07/18 05:40:38;;;;;;;8.15;3.22;;;;;;;;;;4898694;29;20035;-69
2022/07/18 05:43:04;;;;;;;8.73;3.30;;;;;;;;;;4899447;29;20401;-68
2022/07/18 05:45:29;;;;;;;7.82;2.90;;;;;;;;;;4898841;29;20102;-68
2022/07/18 05:47:55;;;;;;;7.55;3.30;;;;;;;;;;4901124;29;20093;-67
2022/07/18 05:50:23;;;;;;;9.05;3.17;;;;;;;;;;4897790;29;20032;-66
2022/07/18 05:52:48;;;;;;;7.63;3.72;;;;;;;;;;4914699;29;20103;-67
2022/07/18 05:55:14;;;;;;;5.93;3.08;;;;;;;;;;4900566;29;20027;-68
2022/07/18 05:57:39;;;;;;;11.00;3.72;;;;;;;;;;4916609;29;20441;-68
2022/07/18 06:00:08;;;;;;;9.30;3.13;;;;;;;;;;4898704;29;20044;-69
2022/07/18 06:02:33;;;;;;;7.78;3.08;;;;;;;;;;4910889;29;20040;-66
2022/07/18 06:04:59;;;;;;;9.38;3.20;;;;;;;;;;4904178;29;20056;-68
2022/07/18 06:07:25;;;;;;;14.15;3.33;;;;;;;;;;4894660;29;20489;-67
2022/07/18 06:09:51;;;;;;;7.18;3.38;;;;;;;;;;4914523;29;20080;-66
2022/07/18 06:12:16;;;;;;;7.53;3.17;;;;;;;;;;4914113;29;20074;-66
2022/07/18 06:14:42;;;;;;;9.23;3.28;;;;;;;;;;4918076;29;20390;-64
2022/07/18 06:17:07;;;;;;;6.10;3.05;;;;;;;;;;4900886;29;20047;-66
2022/07/18 06:19:33;;;;;;;6.70;3.17;;;;;;;;;;4902752;29;20064;-67
2022/07/18 06:21:59;;;;;;;5.97;2.83;;;;;;;;;;4894323;29;20068;-68
2022/07/18 06:24:25;;;;;;;6.65;2.85;;;;;;;;;;4900650;29;20481;-67
2022/07/18 06:26:50;;;;;;;7.47;2.90;;;;;;;;;;4900764;29;20036;-66
2022/07/18 06:29:16;;;;;;;7.40;2.50;;;;;;;;;;4897447;29;20085;-67
2022/07/18 06:31:42;;;;;;;9.40;2.63;;;;;;;;;;4902330;29;20449;-65
2022/07/18 06:34:07;;;;;;;7.28;2.55;;;;;;;;;;4897140;29;20043;-67
2022/07/18 06:36:32;;;;;;;6.70;2.67;;;;;;;;;;4913120;29;20045;-65
2022/07/18 06:38:58;;;;;;;7.90;2.60;;;;;;;;;;4897341;29;20112;-67
2022/07/18 06:41:24;;;;;;;10.25;2.63;;;;;;;;;;4905942;29;20078;-67
2022/07/18 06:43:49;;;;;;;7.68;2.67;;;;;;;;;;4898241;29;20040;-67
2022/07/18 06:46:15;;;;;;;6.43;2.45;;;;;;;;;;4914961;29;20028;-66
2022/07/18 06:48:40;;;;;;;9.15;2.22;;;;;;;;;;4912187;29;20102;-66
2022/07/18 06:51:07;;;;;;;4.47;2.20;;;;;;;;;;4899094;29;20041;-66
2022/07/18 06:53:32;;;;;;;8.90;2.63;;;;;;;;;;4896467;29;20060;-66
2022/07/18 06:55:58;;;;;;;6.57;2.38;;;;;;;;;;4916739;29;20103;-67
2022/07/18 06:58:24;;;;;;;6.88;2.35;;;;;;;;;;4916312;29;20122;-67
2022/07/18 07:00:50;;;;;;;4.53;2.10;;;;;;;;;;4908709;29;20021;-66
2022/07/18 07:03:16;;;;;;;7.25;2.10;;;;;;;;;;4897551;29;20036;-66
2022/07/18 07:05:41;;;;;;;4.93;2.20;;;;;;;;;;4896586;29;21454;-65
2022/07/18 07:08:07;;;;;;;6.57;2.30;;;;;;;;;;4896292;29;20036;-66
2022/07/18 07:10:32;;;;;;;8.73;2.70;;;;;;;;;;4897162;29;20068;-66
2022/07/18 07:12:58;;;;;;;7.00;2.10;;;;;;;;;;4897404;29;20033;-67
2022/07/18 07:15:24;;;;;;;10.60;2.30;;;;;;;;;;4898523;29;20390;-67
2022/07/18 07:17:51;;;;;;;9.90;2.30;;;;;;;;;;4916080;29;20116;-66
2022/07/18 07:20:19;;;;;;;9.55;2.45;;;;;;;;;;4894730;29;20040;-65
2022/07/18 07:22:46;;;;;;;9.30;2.15;;;;;;;;;;4895361;29;20037;-67
2022/07/18 07:25:13;;;;;;;13.00;2.58;;;;;;;;;;4897173;29;20029;-67
2022/07/18 07:27:38;;;;;;;8.18;2.25;;;;;;;;;;4915708;29;20050;-67
2022/07/18 07:30:04;;;;;;;12.23;2.60;;;;;;;;;;4905677;29;20040;-67
2022/07/18 07:32:35;;;;;;;6.78;2.13;;;;;;;;;;4896146;29;20068;-68
2022/07/18 07:35:00;;;;;;;6.22;2.30;;;;;;;;;;4912763;29;20417;-67
2022/07/18 07:37:25;;;;;;;8.48;2.35;;;;;;;;;;4915626;29;20067;-68
2022/07/18 07:39:51;;;;;;;6.22;2.00;;;;;;;;;;4881187;29;20040;-67
2022/07/18 07:42:16;;;;;;;7.22;2.20;;;;;;;;;;4890092;29;20466;-67
2022/07/18 07:44:42;;;;;;;7.60;2.30;;;;;;;;;;4899646;29;20036;-66
2022/07/18 07:47:07;;;;;;;7.45;1.98;;;;;;;;;;4897612;29;20135;-67
2022/07/18 07:49:34;;;;;;;7.35;2.00;;;;;;;;;;4878058;29;20025;-65
2022/07/18 07:52:00;;;;;;;7.63;2.10;;;;;;;;;;4878840;29;20422;-65
2022/07/18 07:54:26;;;;;;;8.65;2.00;;;;;;;;;;4902475;29;20391;-65
2022/07/18 07:56:51;;;;;;;7.03;2.35;;;;;;;;;;4886179;29;20040;-67
2022/07/18 07:59:17;;;;;;;9.48;2.30;;;;;;;;;;4896453;29;20123;-66
2022/07/18 08:01:43;;;;;;;7.03;2.20;;;;;;;;;;4907303;29;20036;-67
2022/07/18 08:04:08;;;;;;;6.00;1.90;;;;;;;;;;4902972;29;20047;-65
2022/07/18 08:06:33;;;;;;;4.50;1.98;;;;;;;;;;4894930;29;20273;-64
2022/07/18 08:08:59;;;;;;;7.28;2.20;;;;;;;;;;4912396;29;20491;-66
2022/07/18 08:11:24;;;;;;;5.55;1.90;;;;;;;;;;4902635;29;20041;-67
2022/07/18 08:13:50;;;;;;;7.57;2.10;;;;;;;;;;4912171;29;20036;-66
2022/07/18 08:16:15;;;;;;;7.65;1.80;;;;;;;;;;4898227;29;20032;-67
2022/07/18 08:18:41;;;;;;;6.15;1.77;;;;;;;;;;4904677;29;20533;-67
2022/07/18 08:21:06;;;;;;;3.67;1.80;;;;;;;;;;4890343;29;20071;-66
2022/07/18 08:23:32;;;;;;;7.25;1.83;;;;;;;;;;4896101;29;20501;-67
2022/07/18 08:25:57;;;;;;;6.07;1.83;;;;;;;;;;4899533;29;20040;-66
2022/07/18 08:28:24;;;;;;;4.30;1.60;;;;;;;;;;4895810;29;20389;-67
2022/07/18 08:30:49;;;;;;;5.70;1.70;;;;;;;;;;4896737;29;20029;-67
2022/07/18 08:33:14;;;;;;;4.40;1.60;;;;;;;;;;4896295;29;20032;-67
2022/07/18 08:35:40;;;;;;;5.38;1.60;;;;;;;;;;4906131;29;20119;-65
2022/07/18 08:38:05;;;;;;;4.18;1.73;;;;;;;;;;4898126;29;20048;-67
2022/07/18 08:40:31;;;;;;;8.93;1.88;;;;;;;;;;4904357;29;20063;-67
2022/07/18 08:42:58;;;;;;;5.05;1.83;;;;;;;;;;4909835;29;20048;-65
2022/07/18 08:45:25;;;;;;;6.03;1.88;;;;;;;;;;4896968;29;20025;-66
2022/07/18 08:47:52;;;;;;;4.25;1.80;;;;;;;;;;4896592;29;20060;-66
2022/07/18 08:50:19;;;;;;;6.18;2.00;;;;;;;;;;4896716;29;20051;-67
2022/07/18 08:52:45;;;;;;;7.20;1.90;;;;;;;;;;4882423;29;20080;-66
2022/07/18 08:55:11;;;;;;;7.93;1.65;;;;;;;;;;4897712;29;20466;-65
2022/07/18 08:57:36;;;;;;;8.07;1.70;;;;;;;;;;4910905;29;20521;-65
2022/07/18 09:00:07;;;;;;;6.60;2.20;;;;;;;;;;4915408;29;20024;-65
2022/07/18 09:02:33;;;;;;;6.97;1.90;;;;;;;;;;4896226;29;20032;-66
2022/07/18 09:05:01;;;;;;;5.30;1.70;;;;;;;;;;4903101;29;20040;-67
2022/07/18 09:07:30;;;;;;;2.90;1.50;;;;;;;;;;4910666;29;20509;-65
2022/07/18 09:09:59;;;;;;;6.70;1.73;;;;;;;;;;4908730;29;20529;-65
2022/07/18 09:12:32;;;;;;;3.13;1.50;;;;;;;;;;4897050;29;20035;-68
2022/07/18 09:15:05;;;;;;;2.55;1.52;;;;;;;;;;4899659;29;20224;-69
2022/07/18 09:17:34;;;;;;;9.38;2.15;;;;;;;;;;4911249;29;20210;-66
2022/07/18 09:20:08;;;;;;;5.07;1.65;;;;;;;;;;4905434;29;20043;-66
2022/07/18 09:22:38;;;;;;;3.10;1.58;;;;;;;;;;4909230;29;20036;-65
2022/07/18 09:25:10;;;;;;;4.38;1.60;;;;;;;;;;4918547;29;20060;-66
2022/07/18 09:27:50;;;;;;;6.45;1.65;;;;;;;;;;4915716;29;20032;-66
2022/07/18 09:30:28;;;;;;;10.10;1.88;;;;;;;;;;4918260;29;20036;-68
2022/07/18 09:33:03;;;;;;;5.18;1.85;;;;;;;;;;4898223;29;20099;-67
2022/07/18 09:35:33;;;;;;;3.63;1.70;;;;;;;;;;4897306;29;20040;-66
2022/07/18 09:38:07;;;;;;;6.55;1.73;;;;;;;;;;4901550;29;20051;-65
2022/07/18 09:40:35;;;;;;;5.15;1.50;;;;;;;;;;4898585;29;20660;-63
2022/07/18 09:43:04;;;;;;;3.97;1.67;;;;;;;;;;4899574;29;20052;-66
2022/07/18 09:45:37;;;;;;;8.60;2.08;;;;;;;;;;4894322;29;20033;-65
2022/07/18 09:48:05;;;;;;;8.10;1.88;;;;;;;;;;4898927;29;20048;-65
2022/07/18 09:50:52;;;;;;;4.80;1.80;;;;;;;;;;4903390;29;20036;-66
2022/07/18 09:53:20;;;;;;;3.65;1.60;;;;;;;;;;4916762;29;20588;-67
2022/07/18 09:55:54;;;;;;;3.80;1.60;;;;;;;;;;4917410;29;20096;-63
2022/07/18 09:58:24;;;;;;;3.80;1.75;;;;;;;;;;4909719;29;20458;-68
2022/07/18 10:00:51;;;;;;;4.65;1.75;;;;;;;;;;4898705;29;20029;-66
2022/07/18 10:03:18;;;;;;;4.95;1.90;;;;;;;;;;4911687;29;20169;-65
2022/07/18 10:05:45;;;;;;;2.15;1.63;;;;;;;;;;4899614;29;20036;-66
2022/07/18 10:08:14;;;;;;;8.02;1.85;;;;;;;;;;4910736;29;20040;-64
2022/07/18 10:10:42;;;;;;;3.75;1.70;;;;;;;;;;4899013;29;20040;-67
2022/07/18 10:13:08;;;;;;;3.88;1.98;;;;;;;;;;4911836;29;20124;-65
2022/07/18 10:15:39;;;;;;;2.72;1.60;;;;;;;;;;4916772;29;20611;-66
2022/07/18 10:18:07;;;;;;;5.78;2.03;;;;;;;;;;4881312;29;20124;-66
2022/07/18 10:20:42;;;;;;;4.82;2.00;;;;;;;;;;4879474;29;20029;-65
2022/07/18 10:23:24;;;;;;;2.50;1.70;;;;;;;;;;4895963;29;20043;-65
2022/07/18 10:26:19;;;;;;;3.22;1.77;;;;;;;;;;4898459;29;20091;-65
2022/07/18 10:28:59;;;;;;;4.03;1.92;;;;;;;;;;4899062;29;20037;-67
2022/07/18 10:31:25;;;;;;;4.97;2.30;;;;;;;;;;4907754;29;20035;-67
2022/07/18 10:33:52;;;;;;;4.07;2.10;;;;;;;;;;4907921;29;20040;-65
2022/07/18 10:36:20;;;;;;;4.05;2.10;;;;;;;;;;4912934;29;20044;-66
2022/07/18 10:39:08;;;;;;;3.38;1.80;;;;;;;;;;4909284;29;20473;-64
2022/07/18 10:42:03;;;;;;;3.70;2.05;;;;;;;;;;4907058;29;20117;-65
2022/07/18 10:44:31;;;;;;;7.97;2.40;;;;;;;;;;4890984;29;20047;-66
2022/07/18 10:47:02;;;;;;;6.15;2.10;;;;;;;;;;4914722;29;20107;-66
2022/07/18 10:49:48;;;;;;;3.15;1.88;;;;;;;;;;4916018;29;20083;-65
2022/07/18 10:52:25;;;;;;;4.65;1.95;;;;;;;;;;4905387;29;20096;-69
2022/07/18 10:55:04;;;;;;;3.90;1.85;;;;;;;;;;4898438;29;20481;-65
2022/07/18 10:57:31;;;;;;;5.13;2.00;;;;;;;;;;4916172;29;20060;-67
2022/07/18 11:00:08;;;;;;;5.57;2.00;;;;;;;;;;4910380;29;20144;-63
2022/07/18 11:02:45;;;;;;;2.72;1.80;;;;;;;;;;4897043;29;20044;-68
2022/07/18 11:05:22;;;;;;;4.85;2.30;;;;;;;;;;4880209;29;20092;-64
2022/07/18 11:08:02;;;;;;;3.53;1.90;;;;;;;;;;4879703;29;20029;-66
2022/07/18 11:11:01;;;;;;;;;;;;;;;;;;4884384;29;20157;-66
2022/07/18 11:13:31;;;;;;;3.85;1.88;;;;;;;;;;4916430;29;19911;-66
2022/07/18 11:16:04;;;;;;;5.03;1.90;;;;;;;;;;4907437;29;20032;-67
2022/07/18 11:18:51;;;;;;;4.25;2.15;;;;;;;;;;4896991;29;20032;-66
2022/07/18 11:21:25;;;;;;;3.67;1.90;;;;;;;;;;4886732;29;20049;-67
2022/07/18 11:23:59;;;;;;;3.60;1.80;;;;;;;;;;4910483;29;20477;-65
2022/07/18 11:26:25;;;;;;;4.38;1.77;;;;;;;;;;4914146;29;20036;-66
2022/07/18 11:29:04;;;;;;;3.47;1.75;;;;;;;;;;4916999;29;20029;-67
2022/07/18 11:31:31;;;;;;;4.07;1.88;;;;;;;;;;4902724;29;20046;-67
2022/07/18 11:34:00;;;;;;;3.70;1.70;;;;;;;;;;4896393;29;20040;-64
2022/07/18 11:36:31;;;;;;;5.78;1.73;;;;;;;;;;4895691;29;20029;-66
2022/07/18 11:39:02;;;;;;;3.95;1.73;;;;;;;;;;4905835;29;20037;-65
2022/07/18 11:41:28;;;;;;;4.20;1.90;;;;;;;;;;4915649;29;20119;-65
2022/07/18 11:43:54;;;;;;;6.10;1.80;;;;;;;;;;4889146;29;20439;-64
2022/07/18 11:46:25;;;;;;;6.20;1.90;;;;;;;;;;4887921;29;20109;-65
2022/07/18 11:49:02;;;;;;;4.93;2.15;;;;;;;;;;4899581;29;20115;-66
2022/07/18 11:51:42;;;;;;;5.82;2.00;;;;;;;;;;4895443;29;20047;-67
2022/07/18 11:54:10;;;;;;;3.97;1.90;;;;;;;;;;4895265;29;20204;-67
2022/07/18 11:56:47;;;;;;;4.75;1.90;;;;;;;;;;5150381;27;20435;-66
2022/07/18 11:59:12;;;;;;;7.75;1.80;;;;;;;;;;5109375;28;20048;-66
2022/07/18 12:01:38;;;;;;;6.93;1.80;;;;;;;;;;5110103;27;20024;-64
2022/07/18 12:04:06;;;;;;;6.50;1.90;;;;;;;;;;5129128;27;20118;-67
2022/07/18 12:06:32;;;;;;;3.40;1.63;;;;;;;;;;5124738;27;20031;-64
2022/07/18 12:09:06;;;;;;;6.07;1.98;;;;;;;;;;5109001;28;20108;-66
2022/07/18 12:11:39;;;;;;;3.78;1.63;;;;;;;;;;5120135;28;20036;-65
2022/07/18 12:14:07;;;;;;;6.63;1.73;;;;;;;;;;5129784;28;20055;-66
2022/07/18 12:16:41;;;;;;;4.40;1.67;;;;;;;;;;5116515;28;20107;-65
2022/07/18 12:19:15;;;;;;;3.20;1.70;;;;;;;;;;5108388;28;20114;-65
2022/07/18 12:21:52;;;;;;;5.55;1.80;;;;;;;;;;5109367;28;20093;-65
2022/07/18 12:24:42;;;;;;;7.95;2.00;;;;;;;;;;5106875;28;20472;-65
2022/07/18 12:27:28;;;;;;;5.38;2.30;;;;;;;;;;5122103;28;20027;-65
2022/07/18 12:30:18;;;;;;;4.13;2.00;;;;;;;;;;5091741;28;20077;-62
2022/07/18 12:32:43;;;;;;;;;;;;;;;;;;5129907;28;20031;-66
2022/07/18 12:35:23;;;;;;;5.47;2.10;;;;;;;;;;5127732;28;20245;-65
2022/07/18 12:38:00;;;;;;;4.75;2.00;;;;;;;;;;5129643;28;20035;-66
2022/07/18 12:41:01;;;;;;;4.40;1.90;;;;;;;;;;5125217;28;20474;-65
2022/07/18 12:43:38;;;;;;;4.13;1.77;;;;;;;;;;5064518;28;20044;-67
2022/07/18 12:46:06;;;;;;;5.15;1.90;;;;;;;;;;5122432;28;20369;-67
2022/07/18 12:48:33;;;;;;;3.97;2.00;;;;;;;;;;5127613;28;20718;-66
2022/07/18 12:51:03;;;;;;;3.88;2.03;;;;;;;;;;5108250;28;20051;-65
2022/07/18 12:53:29;;;;;;;;;;;;;;;;;;5107517;28;20016;-65
2022/07/18 12:55:54;;;;;;;4.25;2.00;;;;;;;;;;5107412;28;19944;-67
2022/07/18 12:58:20;;;;;;;4.80;1.80;;;;;;;;;;5107866;28;20028;-69
2022/07/18 13:00:47;;;;;;;3.53;1.75;;;;;;;;;;5108676;28;20179;-65
2022/07/18 13:03:12;;;;;;;3.75;1.90;;;;;;;;;;5113810;28;20072;-66
2022/07/18 13:05:38;;;;;;;3.88;1.90;;;;;;;;;;5116341;27;20055;-65
2022/07/18 13:08:03;;;;;;;5.00;1.88;;;;;;;;;;5110319;28;20039;-65
2022/07/18 13:10:29;;;;;;;5.82;2.03;;;;;;;;;;5120900;27;20025;-66
2022/07/18 13:12:55;;;;;;;4.97;1.90;;;;;;;;;;5135276;27;20035;-65
2022/07/18 13:15:21;;;;;;;5.13;1.80;;;;;;;;;;5097881;27;20373;-64
2022/07/18 13:17:50;;;;;;;4.03;1.90;;;;;;;;;;5112713;28;20039;-65
2022/07/18 13:20:16;;;;;;;3.78;1.90;;;;;;;;;;5114201;28;20027;-66
2022/07/18 13:22:41;;;;;;;4.20;2.03;;;;;;;;;;5118859;27;20055;-65
2022/07/18 13:25:09;;;;;;;7.43;1.90;;;;;;;;;;5110917;28;20081;-65
2022/07/18 13:27:35;;;;;;;5.88;1.80;;;;;;;;;;5104228;27;20036;-65
2022/07/18 13:30:00;;;;;;;4.03;1.85;;;;;;;;;;5093941;28;20062;-66
2022/07/18 13:32:30;;;;;;;5.32;1.90;;;;;;;;;;5113453;27;20043;-66
2022/07/18 13:34:56;;;;;;;4.93;1.70;;;;;;;;;;5094223;28;20028;-65
2022/07/18 13:37:22;;;;;;;5.63;1.90;;;;;;;;;;5092764;28;20032;-64
2022/07/18 13:39:47;;;;;;;3.25;2.00;;;;;;;;;;5099073;28;20042;-65
2022/07/18 13:42:13;;;;;;;4.45;1.90;;;;;;;;;;5109336;28;20026;-64
2022/07/18 13:44:38;;;;;;;3.08;1.80;;;;;;;;;;5123914;27;20433;-63
2022/07/18 13:47:03;;;;;;;6.15;1.90;;;;;;;;;;5112057;27;20458;-63
2022/07/18 13:49:29;;;;;;;8.85;1.92;;;;;;;;;;5113523;28;20027;-63
2022/07/18 13:51:54;;;;;;;2.83;1.90;;;;;;;;;;5097536;28;20091;-65
2022/07/18 13:54:20;;;;;;;4.15;2.00;;;;;;;;;;5093242;28;20036;-66
2022/07/18 13:56:48;;;;;;;7.95;2.13;;;;;;;;;;5094638;28;20074;-65
2022/07/18 13:59:14;;;;;;;9.77;2.22;;;;;;;;;;5093304;28;20446;-66
2022/07/18 14:01:40;;;;;;;5.40;2.03;;;;;;;;;;5093120;28;20065;-67
2022/07/18 14:04:06;;;;;;;5.30;2.35;;;;;;;;;;5097673;28;20043;-65
2022/07/18 14:06:32;;;;;;;6.60;2.10;;;;;;;;;;5093882;28;20104;-66
2022/07/18 14:08:57;;;;;;;4.53;2.15;;;;;;;;;;5093438;28;20020;-66
2022/07/18 14:11:23;;;;;;;8.15;2.00;;;;;;;;;;5109323;28;20028;-64
2022/07/18 14:13:48;;;;;;;4.22;2.17;;;;;;;;;;5113713;28;20080;-64
2022/07/18 14:16:14;;;;;;;7.00;2.30;;;;;;;;;;5085250;28;20040;-65
2022/07/18 14:18:40;;;;;;;4.10;2.00;;;;;;;;;;5091800;28;20035;-64
2022/07/18 14:21:05;;;;;;;6.32;1.98;;;;;;;;;;5094268;28;20028;-65
2022/07/18 14:23:31;;;;;;;9.45;2.30;;;;;;;;;;5092197;28;20028;-65
2022/07/18 14:25:57;;;;;;;5.25;2.00;;;;;;;;;;5106806;28;20031;-66
2022/07/18 14:28:22;;;;;;;5.97;1.92;;;;;;;;;;5112281;28;20051;-64
2022/07/18 14:30:48;;;;;;;4.13;1.85;;;;;;;;;;5098703;28;20042;-66
2022/07/18 14:33:13;;;;;;;5.97;2.00;;;;;;;;;;5099412;27;20115;-66
2022/07/18 14:35:39;;;;;;;6.97;2.05;;;;;;;;;;5106133;27;20068;-64
2022/07/18 14:38:27;;;;;;;5.03;1.90;;;;;;;;;;5092897;28;20059;-65
2022/07/18 14:40:53;;;;;;;5.75;2.10;;;;;;;;;;5104238;28;20118;-63
2022/07/18 14:43:18;;;;;;;5.20;1.80;;;;;;;;;;5112385;28;20063;-64
2022/07/18 14:45:44;;;;;;;4.45;1.90;;;;;;;;;;5101620;28;20040;-64
2022/07/18 14:48:09;;;;;;;3.63;1.80;;;;;;;;;;5104557;28;20046;-64
2022/07/18 14:50:34;;;;;;;5.55;2.10;;;;;;;;;;5110571;28;20407;-65